sensor_id;sensor_type;location;lat;lon;timestamp;P1;durP1;ratioP1;P2;durP2;ratioP2
70818;SDS011;58439;51.046;13.692;2023-02-28T00:01:46;16.42;;;7.25;;
70818;SDS011;58439;51.046;13.692;2023-02-28T00:04:24;15.38;;;6.90;;
70818;SDS011;58439;51.046;13.692;2023-02-28T00:08:21;11.05;;;5.97;;
70818;SDS011;58439;51.046;13.692;2023-02-28T00:10:48;13.75;;;5.82;;
70818;SDS011;58439;51.046;13.692;2023-02-28T00:14:01;17.30;;;6.97;;
70818;SDS011;58439;51.046;13.692;2023-02-28T00:16:28;12.65;;;6.60;;
70818;SDS011;58439;51.046;13.692;2023-02-28T00:18:55;14.95;;;6.72;;
70818;SDS011;58439;51.046;13.692;2023-02-28T00:21:22;14.20;;;6.43;;
70818;SDS011;58439;51.046;13.692;2023-02-28T00:23:50;15.93;;;6.72;;
70818;SDS011;58439;51.046;13.692;2023-02-28T00:26:18;13.35;;;6.13;;
70818;SDS011;58439;51.046;13.692;2023-02-28T00:28:48;15.45;;;7.28;;
70818;SDS011;58439;51.046;13.692;2023-02-28T00:31:15;12.32;;;6.13;;
70818;SDS011;58439;51.046;13.692;2023-02-28T00:33:43;15.77;;;6.70;;
70818;SDS011;58439;51.046;13.692;2023-02-28T00:36:10;14.50;;;6.50;;
70818;SDS011;58439;51.046;13.692;2023-02-28T00:38:38;12.40;;;6.53;;
70818;SDS011;58439;51.046;13.692;2023-02-28T00:41:07;15.13;;;6.55;;
70818;SDS011;58439;51.046;13.692;2023-02-28T00:43:36;14.13;;;6.80;;
70818;SDS011;58439;51.046;13.692;2023-02-28T00:46:05;14.55;;;5.78;;
70818;SDS011;58439;51.046;13.692;2023-02-28T00:48:34;18.85;;;6.25;;
70818;SDS011;58439;51.046;13.692;2023-02-28T00:51:03;11.48;;;5.90;;
70818;SDS011;58439;51.046;13.692;2023-02-28T00:53:31;12.73;;;6.20;;
70818;SDS011;58439;51.046;13.692;2023-02-28T00:55:59;17.23;;;6.65;;
70818;SDS011;58439;51.046;13.692;2023-02-28T00:58:26;13.75;;;6.22;;
70818;SDS011;58439;51.046;13.692;2023-02-28T01:00:54;11.32;;;5.40;;
70818;SDS011;58439;51.046;13.692;2023-02-28T01:03:21;12.93;;;6.70;;
70818;SDS011;58439;51.046;13.692;2023-02-28T01:05:49;16.20;;;6.03;;
70818;SDS011;58439;51.046;13.692;2023-02-28T01:08:17;15.25;;;5.95;;
70818;SDS011;58439;51.046;13.692;2023-02-28T01:10:44;16.40;;;6.70;;
70818;SDS011;58439;51.046;13.692;2023-02-28T01:17:50;13.95;;;6.22;;
70818;SDS011;58439;51.046;13.692;2023-02-28T01:20:18;13.82;;;6.20;;
70818;SDS011;58439;51.046;13.692;2023-02-28T01:22:46;16.05;;;6.53;;
70818;SDS011;58439;51.046;13.692;2023-02-28T01:25:13;13.73;;;6.28;;
70818;SDS011;58439;51.046;13.692;2023-02-28T01:27:42;17.58;;;6.25;;
70818;SDS011;58439;51.046;13.692;2023-02-28T01:30:09;14.00;;;6.20;;
70818;SDS011;58439;51.046;13.692;2023-02-28T01:32:37;13.32;;;6.22;;
70818;SDS011;58439;51.046;13.692;2023-02-28T01:35:04;14.98;;;6.30;;
70818;SDS011;58439;51.046;13.692;2023-02-28T01:37:33;10.65;;;5.60;;
70818;SDS011;58439;51.046;13.692;2023-02-28T01:40:00;11.93;;;6.28;;
70818;SDS011;58439;51.046;13.692;2023-02-28T01:42:27;14.05;;;6.25;;
70818;SDS011;58439;51.046;13.692;2023-02-28T01:48:02;14.30;;;6.10;;
70818;SDS011;58439;51.046;13.692;2023-02-28T01:50:36;16.13;;;6.65;;
70818;SDS011;58439;51.046;13.692;2023-02-28T01:53:10;17.15;;;6.47;;
70818;SDS011;58439;51.046;13.692;2023-02-28T01:55:42;17.50;;;6.93;;
70818;SDS011;58439;51.046;13.692;2023-02-28T01:58:16;13.43;;;6.28;;
70818;SDS011;58439;51.046;13.692;2023-02-28T02:00:43;12.80;;;6.30;;
70818;SDS011;58439;51.046;13.692;2023-02-28T02:03:12;18.83;;;6.72;;
70818;SDS011;58439;51.046;13.692;2023-02-28T02:05:45;12.65;;;6.28;;
70818;SDS011;58439;51.046;13.692;2023-02-28T02:08:21;15.20;;;6.70;;
70818;SDS011;58439;51.046;13.692;2023-02-28T02:10:59;14.35;;;6.20;;
70818;SDS011;58439;51.046;13.692;2023-02-28T02:13:42;14.18;;;6.40;;
70818;SDS011;58439;51.046;13.692;2023-02-28T02:22:47;18.77;;;7.28;;
70818;SDS011;58439;51.046;13.692;2023-02-28T02:25:50;17.17;;;6.80;;
70818;SDS011;58439;51.046;13.692;2023-02-28T02:29:03;17.50;;;6.80;;
70818;SDS011;58439;51.046;13.692;2023-02-28T02:41:12;12.60;;;6.35;;
70818;SDS011;58439;51.046;13.692;2023-02-28T02:44:40;12.82;;;6.10;;
70818;SDS011;58439;51.046;13.692;2023-02-28T02:47:18;14.73;;;5.78;;
70818;SDS011;58439;51.046;13.692;2023-02-28T02:49:54;16.15;;;6.85;;
70818;SDS011;58439;51.046;13.692;2023-02-28T02:52:41;11.90;;;5.93;;
70818;SDS011;58439;51.046;13.692;2023-02-28T02:55:19;11.48;;;6.47;;
70818;SDS011;58439;51.046;13.692;2023-02-28T02:57:54;15.13;;;7.07;;
70818;SDS011;58439;51.046;13.692;2023-02-28T03:00:30;14.38;;;6.82;;
70818;SDS011;58439;51.046;13.692;2023-02-28T03:03:05;16.27;;;7.03;;
70818;SDS011;58439;51.046;13.692;2023-02-28T03:09:37;17.83;;;8.10;;
70818;SDS011;58439;51.046;13.692;2023-02-28T03:12:06;16.65;;;7.32;;
70818;SDS011;58439;51.046;13.692;2023-02-28T03:20:44;15.35;;;6.93;;
70818;SDS011;58439;51.046;13.692;2023-02-28T03:27:16;24.23;;;12.50;;
70818;SDS011;58439;51.046;13.692;2023-02-28T03:29:58;20.48;;;9.70;;
70818;SDS011;58439;51.046;13.692;2023-02-28T03:32:36;19.20;;;8.52;;
70818;SDS011;58439;51.046;13.692;2023-02-28T03:35:13;15.43;;;9.23;;
70818;SDS011;58439;51.046;13.692;2023-02-28T03:37:53;13.40;;;7.43;;
70818;SDS011;58439;51.046;13.692;2023-02-28T03:40:30;20.65;;;8.48;;
70818;SDS011;58439;51.046;13.692;2023-02-28T03:43:06;22.27;;;7.78;;
70818;SDS011;58439;51.046;13.692;2023-02-28T03:45:39;18.50;;;8.48;;
70818;SDS011;58439;51.046;13.692;2023-02-28T03:48:19;19.58;;;8.00;;
70818;SDS011;58439;51.046;13.692;2023-02-28T03:50:58;16.50;;;8.07;;
70818;SDS011;58439;51.046;13.692;2023-02-28T03:53:29;28.98;;;9.95;;
70818;SDS011;58439;51.046;13.692;2023-02-28T04:01:57;25.17;;;10.50;;
70818;SDS011;58439;51.046;13.692;2023-02-28T04:04:24;17.70;;;9.48;;
70818;SDS011;58439;51.046;13.692;2023-02-28T04:06:52;17.25;;;9.32;;
70818;SDS011;58439;51.046;13.692;2023-02-28T04:09:28;21.40;;;9.40;;
70818;SDS011;58439;51.046;13.692;2023-02-28T04:11:55;20.67;;;8.35;;
70818;SDS011;58439;51.046;13.692;2023-02-28T04:14:23;18.75;;;9.07;;
70818;SDS011;58439;51.046;13.692;2023-02-28T04:16:50;17.42;;;9.73;;
70818;SDS011;58439;51.046;13.692;2023-02-28T04:19:18;19.42;;;9.77;;
70818;SDS011;58439;51.046;13.692;2023-02-28T04:21:52;18.83;;;9.90;;
70818;SDS011;58439;51.046;13.692;2023-02-28T04:24:21;18.38;;;10.07;;
70818;SDS011;58439;51.046;13.692;2023-02-28T04:26:53;20.42;;;9.90;;
70818;SDS011;58439;51.046;13.692;2023-02-28T04:29:24;20.08;;;10.77;;
70818;SDS011;58439;51.046;13.692;2023-02-28T04:31:59;19.63;;;9.55;;
70818;SDS011;58439;51.046;13.692;2023-02-28T04:34:29;19.30;;;10.10;;
70818;SDS011;58439;51.046;13.692;2023-02-28T04:36:58;19.65;;;10.10;;
70818;SDS011;58439;51.046;13.692;2023-02-28T04:39:42;22.75;;;10.52;;
70818;SDS011;58439;51.046;13.692;2023-02-28T04:42:10;19.75;;;10.13;;
70818;SDS011;58439;51.046;13.692;2023-02-28T04:44:40;16.13;;;8.88;;
70818;SDS011;58439;51.046;13.692;2023-02-28T04:47:07;16.67;;;8.88;;
70818;SDS011;58439;51.046;13.692;2023-02-28T04:49:34;19.35;;;9.23;;
70818;SDS011;58439;51.046;13.692;2023-02-28T04:52:02;23.33;;;9.95;;
70818;SDS011;58439;51.046;13.692;2023-02-28T04:54:30;23.25;;;9.23;;
70818;SDS011;58439;51.046;13.692;2023-02-28T04:56:57;19.77;;;9.77;;
70818;SDS011;58439;51.046;13.692;2023-02-28T04:59:24;21.05;;;10.57;;
70818;SDS011;58439;51.046;13.692;2023-02-28T05:01:54;26.50;;;11.13;;
70818;SDS011;58439;51.046;13.692;2023-02-28T05:04:22;19.83;;;10.00;;
70818;SDS011;58439;51.046;13.692;2023-02-28T05:06:49;21.95;;;11.48;;
70818;SDS011;58439;51.046;13.692;2023-02-28T05:09:19;29.17;;;12.65;;
70818;SDS011;58439;51.046;13.692;2023-02-28T05:11:46;30.42;;;12.65;;
70818;SDS011;58439;51.046;13.692;2023-02-28T05:14:15;27.90;;;11.55;;
70818;SDS011;58439;51.046;13.692;2023-02-28T05:16:42;25.23;;;11.57;;
70818;SDS011;58439;51.046;13.692;2023-02-28T05:19:09;24.27;;;11.60;;
70818;SDS011;58439;51.046;13.692;2023-02-28T05:21:40;25.05;;;11.75;;
70818;SDS011;58439;51.046;13.692;2023-02-28T05:24:17;25.38;;;10.85;;
70818;SDS011;58439;51.046;13.692;2023-02-28T05:26:52;25.20;;;10.88;;
70818;SDS011;58439;51.046;13.692;2023-02-28T05:29:21;21.63;;;11.00;;
70818;SDS011;58439;51.046;13.692;2023-02-28T05:31:49;26.48;;;12.45;;
70818;SDS011;58439;51.046;13.692;2023-02-28T05:34:16;26.05;;;11.18;;
70818;SDS011;58439;51.046;13.692;2023-02-28T05:36:44;23.05;;;11.82;;
70818;SDS011;58439;51.046;13.692;2023-02-28T05:39:11;24.55;;;11.27;;
70818;SDS011;58439;51.046;13.692;2023-02-28T05:41:40;22.95;;;11.70;;
70818;SDS011;58439;51.046;13.692;2023-02-28T05:44:09;25.17;;;12.73;;
70818;SDS011;58439;51.046;13.692;2023-02-28T05:46:38;26.92;;;12.82;;
70818;SDS011;58439;51.046;13.692;2023-02-28T05:49:05;26.45;;;14.32;;
70818;SDS011;58439;51.046;13.692;2023-02-28T05:51:33;24.02;;;12.45;;
70818;SDS011;58439;51.046;13.692;2023-02-28T05:54:02;27.13;;;11.80;;
70818;SDS011;58439;51.046;13.692;2023-02-28T05:56:30;24.60;;;11.93;;
70818;SDS011;58439;51.046;13.692;2023-02-28T05:58:57;30.40;;;13.32;;
70818;SDS011;58439;51.046;13.692;2023-02-28T06:01:30;27.65;;;12.43;;
70818;SDS011;58439;51.046;13.692;2023-02-28T06:04:20;34.55;;;13.05;;
70818;SDS011;58439;51.046;13.692;2023-02-28T06:07:35;36.63;;;13.77;;
70818;SDS011;58439;51.046;13.692;2023-02-28T06:10:02;21.63;;;11.35;;
70818;SDS011;58439;51.046;13.692;2023-02-28T06:12:29;24.38;;;11.23;;
70818;SDS011;58439;51.046;13.692;2023-02-28T06:14:56;27.38;;;11.80;;
70818;SDS011;58439;51.046;13.692;2023-02-28T06:17:24;29.65;;;12.38;;
70818;SDS011;58439;51.046;13.692;2023-02-28T06:19:51;24.52;;;12.15;;
70818;SDS011;58439;51.046;13.692;2023-02-28T06:22:18;26.75;;;12.75;;
70818;SDS011;58439;51.046;13.692;2023-02-28T06:24:49;31.73;;;12.98;;
70818;SDS011;58439;51.046;13.692;2023-02-28T06:27:16;26.98;;;12.95;;
70818;SDS011;58439;51.046;13.692;2023-02-28T06:29:46;29.77;;;12.38;;
70818;SDS011;58439;51.046;13.692;2023-02-28T06:32:14;27.08;;;12.68;;
70818;SDS011;58439;51.046;13.692;2023-02-28T06:34:41;29.73;;;13.23;;
70818;SDS011;58439;51.046;13.692;2023-02-28T06:37:14;28.65;;;12.95;;
70818;SDS011;58439;51.046;13.692;2023-02-28T06:39:41;29.15;;;13.15;;
70818;SDS011;58439;51.046;13.692;2023-02-28T06:46:01;27.23;;;11.98;;
70818;SDS011;58439;51.046;13.692;2023-02-28T06:48:32;31.05;;;12.77;;
70818;SDS011;58439;51.046;13.692;2023-02-28T06:51:05;31.38;;;13.05;;
70818;SDS011;58439;51.046;13.692;2023-02-28T06:53:36;31.92;;;13.50;;
70818;SDS011;58439;51.046;13.692;2023-02-28T06:56:06;29.88;;;12.60;;
70818;SDS011;58439;51.046;13.692;2023-02-28T06:59:10;31.83;;;13.25;;
70818;SDS011;58439;51.046;13.692;2023-02-28T07:02:30;31.98;;;14.43;;
70818;SDS011;58439;51.046;13.692;2023-02-28T07:04:58;29.60;;;13.43;;
70818;SDS011;58439;51.046;13.692;2023-02-28T07:07:25;31.33;;;13.25;;
70818;SDS011;58439;51.046;13.692;2023-02-28T07:09:52;32.58;;;14.43;;
70818;SDS011;58439;51.046;13.692;2023-02-28T07:12:19;30.13;;;14.05;;
70818;SDS011;58439;51.046;13.692;2023-02-28T07:14:47;30.35;;;12.85;;
70818;SDS011;58439;51.046;13.692;2023-02-28T07:17:14;28.45;;;13.10;;
70818;SDS011;58439;51.046;13.692;2023-02-28T07:19:42;28.77;;;13.65;;
70818;SDS011;58439;51.046;13.692;2023-02-28T07:22:09;26.00;;;12.55;;
70818;SDS011;58439;51.046;13.692;2023-02-28T07:24:36;35.85;;;13.27;;
70818;SDS011;58439;51.046;13.692;2023-02-28T07:27:04;26.90;;;12.98;;
70818;SDS011;58439;51.046;13.692;2023-02-28T07:29:34;28.77;;;11.75;;
70818;SDS011;58439;51.046;13.692;2023-02-28T07:32:01;24.80;;;11.88;;
70818;SDS011;58439;51.046;13.692;2023-02-28T07:34:28;23.52;;;11.23;;
70818;SDS011;58439;51.046;13.692;2023-02-28T07:36:56;24.55;;;12.88;;
70818;SDS011;58439;51.046;13.692;2023-02-28T07:39:23;23.05;;;12.25;;
70818;SDS011;58439;51.046;13.692;2023-02-28T07:41:50;21.92;;;12.02;;
70818;SDS011;58439;51.046;13.692;2023-02-28T07:44:19;23.17;;;12.00;;
70818;SDS011;58439;51.046;13.692;2023-02-28T07:46:47;25.92;;;12.15;;
70818;SDS011;58439;51.046;13.692;2023-02-28T07:49:15;24.60;;;11.50;;
70818;SDS011;58439;51.046;13.692;2023-02-28T07:51:42;26.42;;;12.52;;
70818;SDS011;58439;51.046;13.692;2023-02-28T07:54:09;22.90;;;12.38;;
70818;SDS011;58439;51.046;13.692;2023-02-28T07:56:36;26.33;;;11.88;;
70818;SDS011;58439;51.046;13.692;2023-02-28T07:59:03;24.70;;;12.07;;
70818;SDS011;58439;51.046;13.692;2023-02-28T08:01:31;30.27;;;11.77;;
70818;SDS011;58439;51.046;13.692;2023-02-28T08:03:59;29.25;;;11.80;;
70818;SDS011;58439;51.046;13.692;2023-02-28T08:06:26;26.20;;;11.38;;
70818;SDS011;58439;51.046;13.692;2023-02-28T08:08:53;42.83;;;12.35;;
70818;SDS011;58439;51.046;13.692;2023-02-28T08:11:22;30.83;;;11.77;;
70818;SDS011;58439;51.046;13.692;2023-02-28T08:13:49;29.08;;;11.48;;
70818;SDS011;58439;51.046;13.692;2023-02-28T08:16:17;26.70;;;11.55;;
70818;SDS011;58439;51.046;13.692;2023-02-28T08:18:49;28.13;;;11.27;;
70818;SDS011;58439;51.046;13.692;2023-02-28T08:21:21;29.17;;;11.43;;
70818;SDS011;58439;51.046;13.692;2023-02-28T08:23:51;29.58;;;11.27;;
70818;SDS011;58439;51.046;13.692;2023-02-28T08:26:19;23.95;;;10.38;;
70818;SDS011;58439;51.046;13.692;2023-02-28T08:28:47;25.42;;;11.52;;
70818;SDS011;58439;51.046;13.692;2023-02-28T08:31:15;31.52;;;11.18;;
70818;SDS011;58439;51.046;13.692;2023-02-28T08:33:43;33.72;;;11.00;;
70818;SDS011;58439;51.046;13.692;2023-02-28T08:36:12;28.85;;;10.45;;
70818;SDS011;58439;51.046;13.692;2023-02-28T08:38:39;31.40;;;11.25;;
70818;SDS011;58439;51.046;13.692;2023-02-28T08:41:07;22.40;;;10.60;;
70818;SDS011;58439;51.046;13.692;2023-02-28T08:43:38;41.40;;;12.35;;
70818;SDS011;58439;51.046;13.692;2023-02-28T08:46:07;24.35;;;10.80;;
70818;SDS011;58439;51.046;13.692;2023-02-28T08:48:39;27.42;;;10.30;;
70818;SDS011;58439;51.046;13.692;2023-02-28T08:51:17;26.73;;;10.25;;
70818;SDS011;58439;51.046;13.692;2023-02-28T08:54:26;19.30;;;9.57;;
70818;SDS011;58439;51.046;13.692;2023-02-28T08:57:04;19.85;;;9.10;;
70818;SDS011;58439;51.046;13.692;2023-02-28T09:00:07;33.08;;;10.45;;
70818;SDS011;58439;51.046;13.692;2023-02-28T09:02:35;22.67;;;10.07;;
70818;SDS011;58439;51.046;13.692;2023-02-28T09:08:04;24.30;;;10.35;;
70818;SDS011;58439;51.046;13.692;2023-02-28T09:10:31;19.75;;;8.43;;
70818;SDS011;58439;51.046;13.692;2023-02-28T09:12:58;23.88;;;9.43;;
70818;SDS011;58439;51.046;13.692;2023-02-28T09:15:25;42.25;;;11.05;;
70818;SDS011;58439;51.046;13.692;2023-02-28T09:17:53;26.80;;;9.73;;
70818;SDS011;58439;51.046;13.692;2023-02-28T09:20:20;24.75;;;9.00;;
70818;SDS011;58439;51.046;13.692;2023-02-28T09:22:47;17.30;;;7.55;;
70818;SDS011;58439;51.046;13.692;2023-02-28T09:25:15;23.85;;;8.45;;
70818;SDS011;58439;51.046;13.692;2023-02-28T09:27:42;25.85;;;8.70;;
70818;SDS011;58439;51.046;13.692;2023-02-28T09:30:26;20.80;;;7.75;;
70818;SDS011;58439;51.046;13.692;2023-02-28T09:32:58;43.15;;;9.93;;
70818;SDS011;58439;51.046;13.692;2023-02-28T09:35:34;30.90;;;9.68;;
70818;SDS011;58439;51.046;13.692;2023-02-28T09:38:06;16.23;;;8.10;;
70818;SDS011;58439;51.046;13.692;2023-02-28T09:41:01;19.58;;;7.65;;
70818;SDS011;58439;51.046;13.692;2023-02-28T09:43:37;25.55;;;7.13;;
70818;SDS011;58439;51.046;13.692;2023-02-28T09:49:17;17.75;;;6.43;;
70818;SDS011;58439;51.046;13.692;2023-02-28T09:52:00;17.67;;;7.07;;
70818;SDS011;58439;51.046;13.692;2023-02-28T09:54:46;18.52;;;8.27;;
70818;SDS011;58439;51.046;13.692;2023-02-28T09:57:17;44.65;;;9.55;;
70818;SDS011;58439;51.046;13.692;2023-02-28T10:00:15;24.33;;;9.15;;
70818;SDS011;58439;51.046;13.692;2023-02-28T10:02:54;22.38;;;7.78;;
70818;SDS011;58439;51.046;13.692;2023-02-28T10:06:11;12.95;;;5.35;;
70818;SDS011;58439;51.046;13.692;2023-02-28T10:09:29;22.45;;;7.07;;
70818;SDS011;58439;51.046;13.692;2023-02-28T10:16:56;18.30;;;6.05;;
70818;SDS011;58439;51.046;13.692;2023-02-28T10:23:56;12.65;;;5.82;;
70818;SDS011;58439;51.046;13.692;2023-02-28T10:26:43;17.13;;;7.30;;
70818;SDS011;58439;51.046;13.692;2023-02-28T10:29:14;16.25;;;7.50;;
70818;SDS011;58439;51.046;13.692;2023-02-28T10:31:42;15.40;;;7.18;;
70818;SDS011;58439;51.046;13.692;2023-02-28T10:34:11;19.13;;;7.25;;
70818;SDS011;58439;51.046;13.692;2023-02-28T10:36:40;19.70;;;7.55;;
70818;SDS011;58439;51.046;13.692;2023-02-28T10:42:22;17.77;;;7.90;;
70818;SDS011;58439;51.046;13.692;2023-02-28T10:45:10;17.75;;;7.82;;
70818;SDS011;58439;51.046;13.692;2023-02-28T10:47:57;16.95;;;8.68;;
70818;SDS011;58439;51.046;13.692;2023-02-28T10:50:42;23.45;;;8.73;;
70818;SDS011;58439;51.046;13.692;2023-02-28T10:53:16;23.15;;;9.57;;
70818;SDS011;58439;51.046;13.692;2023-02-28T10:56:01;25.77;;;9.65;;
70818;SDS011;58439;51.046;13.692;2023-02-28T11:07:00;19.85;;;9.57;;
70818;SDS011;58439;51.046;13.692;2023-02-28T11:09:34;22.58;;;9.95;;
70818;SDS011;58439;51.046;13.692;2023-02-28T11:12:16;20.33;;;7.88;;
70818;SDS011;58439;51.046;13.692;2023-02-28T11:15:04;18.50;;;8.77;;
70818;SDS011;58439;51.046;13.692;2023-02-28T11:17:56;18.77;;;8.73;;
70818;SDS011;58439;51.046;13.692;2023-02-28T11:20:56;21.10;;;9.50;;
70818;SDS011;58439;51.046;13.692;2023-02-28T11:23:27;19.83;;;8.85;;
70818;SDS011;58439;51.046;13.692;2023-02-28T11:26:03;20.33;;;9.00;;
70818;SDS011;58439;51.046;13.692;2023-02-28T11:28:32;23.02;;;9.90;;
70818;SDS011;58439;51.046;13.692;2023-02-28T11:33:51;18.08;;;8.10;;
70818;SDS011;58439;51.046;13.692;2023-02-28T11:36:27;14.63;;;8.23;;
70818;SDS011;58439;51.046;13.692;2023-02-28T11:39:01;18.83;;;7.55;;
70818;SDS011;58439;51.046;13.692;2023-02-28T11:44:42;23.35;;;9.88;;
70818;SDS011;58439;51.046;13.692;2023-02-28T11:47:47;19.15;;;9.00;;
70818;SDS011;58439;51.046;13.692;2023-02-28T11:56:38;18.13;;;7.72;;
70818;SDS011;58439;51.046;13.692;2023-02-28T12:02:24;14.40;;;6.90;;
70818;SDS011;58439;51.046;13.692;2023-02-28T12:08:04;24.30;;;8.70;;
70818;SDS011;58439;51.046;13.692;2023-02-28T12:29:00;15.32;;;7.63;;
70818;SDS011;58439;51.046;13.692;2023-02-28T12:31:45;16.60;;;8.23;;
70818;SDS011;58439;51.046;13.692;2023-02-28T12:34:52;17.67;;;8.55;;
70818;SDS011;58439;51.046;13.692;2023-02-28T12:37:40;23.70;;;9.52;;
70818;SDS011;58439;51.046;13.692;2023-02-28T12:40:16;20.67;;;10.70;;
70818;SDS011;58439;51.046;13.692;2023-02-28T12:42:57;17.55;;;8.35;;
70818;SDS011;58439;51.046;13.692;2023-02-28T12:49:52;106.50;;;21.30;;
70818;SDS011;58439;51.046;13.692;2023-02-28T12:51:54;13.93;;;7.13;;
70818;SDS011;58439;51.046;13.692;2023-02-28T12:54:44;27.10;;;9.63;;
70818;SDS011;58439;51.046;13.692;2023-02-28T12:57:41;15.93;;;8.63;;
70818;SDS011;58439;51.046;13.692;2023-02-28T13:00:29;29.17;;;11.25;;
70818;SDS011;58439;51.046;13.692;2023-02-28T13:09:51;16.63;;;9.00;;
70818;SDS011;58439;51.046;13.692;2023-02-28T13:12:28;17.65;;;7.65;;
70818;SDS011;58439;51.046;13.692;2023-02-28T13:15:20;17.30;;;8.30;;
70818;SDS011;58439;51.046;13.692;2023-02-28T13:18:38;20.55;;;8.65;;
70818;SDS011;58439;51.046;13.692;2023-02-28T13:21:22;19.67;;;9.32;;
70818;SDS011;58439;51.046;13.692;2023-02-28T13:23:58;20.02;;;9.85;;
70818;SDS011;58439;51.046;13.692;2023-02-28T13:29:27;21.17;;;9.80;;
70818;SDS011;58439;51.046;13.692;2023-02-28T13:32:44;18.65;;;9.52;;
70818;SDS011;58439;51.046;13.692;2023-02-28T13:35:12;19.88;;;9.98;;
70818;SDS011;58439;51.046;13.692;2023-02-28T13:38:55;18.77;;;9.30;;
70818;SDS011;58439;51.046;13.692;2023-02-28T13:54:56;19.52;;;9.38;;
70818;SDS011;58439;51.046;13.692;2023-02-28T13:57:47;20.67;;;10.20;;
70818;SDS011;58439;51.046;13.692;2023-02-28T14:01:08;21.88;;;10.75;;
70818;SDS011;58439;51.046;13.692;2023-02-28T14:07:48;21.35;;;10.35;;
70818;SDS011;58439;51.046;13.692;2023-02-28T14:10:30;23.17;;;10.35;;
70818;SDS011;58439;51.046;13.692;2023-02-28T14:17:05;22.05;;;10.23;;
70818;SDS011;58439;51.046;13.692;2023-02-28T14:19:43;23.90;;;11.10;;
70818;SDS011;58439;51.046;13.692;2023-02-28T14:22:57;17.88;;;10.13;;
70818;SDS011;58439;51.046;13.692;2023-02-28T14:26:43;21.42;;;10.32;;
70818;SDS011;58439;51.046;13.692;2023-02-28T14:35:22;23.83;;;12.18;;
70818;SDS011;58439;51.046;13.692;2023-02-28T14:38:20;21.53;;;10.00;;
70818;SDS011;58439;51.046;13.692;2023-02-28T14:40:57;19.50;;;10.55;;
70818;SDS011;58439;51.046;13.692;2023-02-28T14:47:00;24.70;;;10.55;;
70818;SDS011;58439;51.046;13.692;2023-02-28T14:49:36;23.60;;;11.25;;
70818;SDS011;58439;51.046;13.692;2023-02-28T14:52:14;18.13;;;10.50;;
70818;SDS011;58439;51.046;13.692;2023-02-28T14:54:52;24.50;;;11.50;;
70818;SDS011;58439;51.046;13.692;2023-02-28T14:57:26;21.17;;;11.73;;
70818;SDS011;58439;51.046;13.692;2023-02-28T15:00:13;22.30;;;10.95;;
70818;SDS011;58439;51.046;13.692;2023-02-28T15:02:43;23.05;;;11.02;;
70818;SDS011;58439;51.046;13.692;2023-02-28T15:10:44;29.13;;;11.35;;
70818;SDS011;58439;51.046;13.692;2023-02-28T15:13:48;20.13;;;10.07;;
70818;SDS011;58439;51.046;13.692;2023-02-28T15:19:02;24.95;;;11.65;;
70818;SDS011;58439;51.046;13.692;2023-02-28T15:21:39;28.42;;;12.75;;
70818;SDS011;58439;51.046;13.692;2023-02-28T15:24:20;24.02;;;12.30;;
70818;SDS011;58439;51.046;13.692;2023-02-28T15:27:05;23.80;;;12.35;;
70818;SDS011;58439;51.046;13.692;2023-02-28T15:35:38;31.48;;;14.13;;
70818;SDS011;58439;51.046;13.692;2023-02-28T15:38:22;28.98;;;14.13;;
70818;SDS011;58439;51.046;13.692;2023-02-28T15:40:54;25.27;;;13.80;;
70818;SDS011;58439;51.046;13.692;2023-02-28T15:43:26;27.50;;;14.03;;
70818;SDS011;58439;51.046;13.692;2023-02-28T15:46:01;29.63;;;14.27;;
70818;SDS011;58439;51.046;13.692;2023-02-28T15:48:47;42.78;;;16.15;;
70818;SDS011;58439;51.046;13.692;2023-02-28T15:51:24;34.50;;;15.27;;
70818;SDS011;58439;51.046;13.692;2023-02-28T15:54:05;26.10;;;13.38;;
70818;SDS011;58439;51.046;13.692;2023-02-28T15:56:43;30.27;;;12.60;;
70818;SDS011;58439;51.046;13.692;2023-02-28T15:59:17;27.70;;;11.77;;
70818;SDS011;58439;51.046;13.692;2023-02-28T16:07:40;30.70;;;13.73;;
70818;SDS011;58439;51.046;13.692;2023-02-28T16:10:12;30.15;;;13.15;;
70818;SDS011;58439;51.046;13.692;2023-02-28T16:12:45;26.48;;;12.88;;
70818;SDS011;58439;51.046;13.692;2023-02-28T16:15:19;24.75;;;12.88;;
70818;SDS011;58439;51.046;13.692;2023-02-28T16:18:02;28.27;;;13.25;;
70818;SDS011;58439;51.046;13.692;2023-02-28T16:20:30;28.02;;;11.73;;
70818;SDS011;58439;51.046;13.692;2023-02-28T16:23:01;29.40;;;12.25;;
70818;SDS011;58439;51.046;13.692;2023-02-28T16:25:35;37.90;;;13.27;;
70818;SDS011;58439;51.046;13.692;2023-02-28T16:28:21;29.47;;;12.73;;
70818;SDS011;58439;51.046;13.692;2023-02-28T16:31:10;22.10;;;12.40;;
70818;SDS011;58439;51.046;13.692;2023-02-28T16:33:43;27.55;;;13.77;;
70818;SDS011;58439;51.046;13.692;2023-02-28T16:36:19;30.23;;;14.07;;
70818;SDS011;58439;51.046;13.692;2023-02-28T16:38:52;25.33;;;13.32;;
70818;SDS011;58439;51.046;13.692;2023-02-28T16:41:21;27.02;;;13.73;;
70818;SDS011;58439;51.046;13.692;2023-02-28T16:43:54;35.28;;;14.95;;
70818;SDS011;58439;51.046;13.692;2023-02-28T16:46:30;31.80;;;13.57;;
70818;SDS011;58439;51.046;13.692;2023-02-28T16:49:01;29.30;;;13.10;;
70818;SDS011;58439;51.046;13.692;2023-02-28T16:51:29;30.05;;;13.15;;
70818;SDS011;58439;51.046;13.692;2023-02-28T16:54:00;30.05;;;13.77;;
70818;SDS011;58439;51.046;13.692;2023-02-28T16:56:30;26.85;;;13.40;;
70818;SDS011;58439;51.046;13.692;2023-02-28T16:59:33;34.40;;;14.45;;
70818;SDS011;58439;51.046;13.692;2023-02-28T17:02:00;28.02;;;13.90;;
70818;SDS011;58439;51.046;13.692;2023-02-28T17:04:28;28.85;;;13.52;;
70818;SDS011;58439;51.046;13.692;2023-02-28T17:06:55;33.65;;;13.55;;
70818;SDS011;58439;51.046;13.692;2023-02-28T17:09:24;27.67;;;14.20;;
70818;SDS011;58439;51.046;13.692;2023-02-28T17:12:07;28.77;;;14.02;;
70818;SDS011;58439;51.046;13.692;2023-02-28T17:14:35;29.92;;;14.45;;
70818;SDS011;58439;51.046;13.692;2023-02-28T17:17:05;29.45;;;14.02;;
70818;SDS011;58439;51.046;13.692;2023-02-28T17:19:33;33.55;;;13.98;;
70818;SDS011;58439;51.046;13.692;2023-02-28T17:22:03;39.60;;;15.07;;
70818;SDS011;58439;51.046;13.692;2023-02-28T17:24:31;36.38;;;15.45;;
70818;SDS011;58439;51.046;13.692;2023-02-28T17:26:58;39.05;;;16.98;;
70818;SDS011;58439;51.046;13.692;2023-02-28T17:29:25;34.95;;;16.65;;
70818;SDS011;58439;51.046;13.692;2023-02-28T17:31:52;36.42;;;16.45;;
70818;SDS011;58439;51.046;13.692;2023-02-28T17:34:20;38.05;;;15.93;;
70818;SDS011;58439;51.046;13.692;2023-02-28T17:36:49;32.22;;;15.13;;
70818;SDS011;58439;51.046;13.692;2023-02-28T17:39:18;39.05;;;17.98;;
70818;SDS011;58439;51.046;13.692;2023-02-28T17:44:55;43.70;;;20.90;;
70818;SDS011;58439;51.046;13.692;2023-02-28T17:47:22;45.90;;;21.23;;
70818;SDS011;58439;51.046;13.692;2023-02-28T17:49:50;56.97;;;21.80;;
70818;SDS011;58439;51.046;13.692;2023-02-28T17:52:25;45.20;;;21.88;;
70818;SDS011;58439;51.046;13.692;2023-02-28T17:54:54;41.33;;;19.95;;
70818;SDS011;58439;51.046;13.692;2023-02-28T17:57:26;42.35;;;22.00;;
70818;SDS011;58439;51.046;13.692;2023-02-28T18:03:43;54.22;;;22.50;;